Time;durP1;ratioP1;P1;durP2;ratioP2;P2;SDS_P1;SDS_P2;PMS_P1;PMS_P2;Temp;Humidity;BMP_temperature;BMP_pressure;BME280_temperature;BME280_humidity;BME280_pressure;Samples;Min_cycle;Max_cycle;Signal;HPM_P1;HPM_P2
2023/08/01 00:00:07;;;;;;;11.23;10.40;;;;;;;;;;4989829;28;20084;-73
2023/08/01 00:02:39;;;;;;;12.10;11.00;;;;;;;;;;4990660;28;20126;-73
2023/08/01 00:05:05;;;;;;;12.68;11.52;;;;;;;;;;4990864;28;20475;-73
2023/08/01 00:07:30;;;;;;;12.30;11.18;;;;;;;;;;4989781;28;20050;-72
2023/08/01 00:09:56;;;;;;;11.90;10.70;;;;;;;;;;4989859;28;20062;-73
2023/08/01 00:12:24;;;;;;;12.05;11.02;;;;;;;;;;4988059;28;20038;-73
2023/08/01 00:14:49;;;;;;;12.40;11.15;;;;;;;;;;4986455;28;20045;-73
2023/08/01 00:17:15;;;;;;;11.52;10.48;;;;;;;;;;4988881;28;20030;-72
2023/08/01 00:19:40;;;;;;;12.00;10.70;;;;;;;;;;4988519;28;20108;-72
2023/08/01 00:22:06;;;;;;;11.73;10.55;;;;;;;;;;4990330;28;20046;-73
2023/08/01 00:24:31;;;;;;;12.27;11.07;;;;;;;;;;4989679;28;20070;-73
2023/08/01 00:26:57;;;;;;;11.68;10.68;;;;;;;;;;4989591;28;20038;-72
2023/08/01 00:29:23;;;;;;;12.10;11.10;;;;;;;;;;4989202;28;20049;-72
2023/08/01 00:31:48;;;;;;;11.68;10.77;;;;;;;;;;4987947;28;20521;-73
2023/08/01 00:34:14;;;;;;;11.80;10.70;;;;;;;;;;4990058;28;20038;-73
2023/08/01 00:37:05;;;;;;;12.07;10.65;;;;;;;;;;4987795;28;20056;-73
2023/08/01 00:39:30;;;;;;;11.52;10.65;;;;;;;;;;4986870;28;20034;-74
2023/08/01 00:41:56;;;;;;;12.32;11.13;;;;;;;;;;4987118;28;20141;-73
2023/08/01 00:44:22;;;;;;;12.13;10.90;;;;;;;;;;4987753;28;20097;-72
2023/08/01 00:46:47;;;;;;;12.38;11.27;;;;;;;;;;4988100;28;20482;-72
2023/08/01 00:49:14;;;;;;;12.27;11.20;;;;;;;;;;4989830;28;20479;-72
2023/08/01 00:51:40;;;;;;;11.65;10.70;;;;;;;;;;4986718;28;20073;-73
2023/08/01 00:54:06;;;;;;;11.80;10.90;;;;;;;;;;4989469;28;20033;-73
2023/08/01 00:56:32;;;;;;;11.95;11.05;;;;;;;;;;4985967;28;20034;-73
2023/08/01 00:58:57;;;;;;;11.45;10.55;;;;;;;;;;4988698;28;20095;-72
2023/08/01 01:01:23;;;;;;;15.20;11.18;;;;;;;;;;4987846;28;20026;-73
2023/08/01 01:03:50;;;;;;;12.57;11.30;;;;;;;;;;4987184;28;20046;-73
2023/08/01 01:06:34;;;;;;;14.05;10.88;;;;;;;;;;4985350;28;20046;-73
2023/08/01 01:08:59;;;;;;;12.02;11.00;;;;;;;;;;4986014;28;20038;-73
2023/08/01 01:11:25;;;;;;;12.27;11.20;;;;;;;;;;4986263;28;20034;-73
2023/08/01 01:13:54;;;;;;;12.07;10.93;;;;;;;;;;4986605;28;20042;-73
2023/08/01 01:16:20;;;;;;;12.13;11.02;;;;;;;;;;4987764;28;20755;-73
2023/08/01 01:18:45;;;;;;;12.38;11.38;;;;;;;;;;4988139;28;20638;-73
2023/08/01 01:21:11;;;;;;;11.90;11.02;;;;;;;;;;4987660;28;20030;-72
2023/08/01 01:23:37;;;;;;;11.60;10.60;;;;;;;;;;4985658;28;20038;-73
2023/08/01 01:26:06;;;;;;;11.77;10.60;;;;;;;;;;4987475;28;20406;-72
2023/08/01 01:28:33;;;;;;;11.52;10.60;;;;;;;;;;4985934;28;20034;-73
2023/08/01 01:31:01;;;;;;;11.80;10.50;;;;;;;;;;4987490;28;20287;-72
2023/08/01 01:33:27;;;;;;;11.82;10.93;;;;;;;;;;4986989;28;20458;-73
2023/08/01 01:35:54;;;;;;;12.55;11.48;;;;;;;;;;4985853;28;20034;-73
2023/08/01 01:38:19;;;;;;;14.43;10.68;;;;;;;;;;4985617;28;20666;-71
2023/08/01 01:40:45;;;;;;;12.07;10.88;;;;;;;;;;4984973;28;20053;-72
2023/08/01 01:43:10;;;;;;;11.65;10.65;;;;;;;;;;4985676;28;20034;-73
2023/08/01 01:45:36;;;;;;;11.75;10.60;;;;;;;;;;4986103;28;20042;-73
2023/08/01 01:48:01;;;;;;;12.05;11.00;;;;;;;;;;4986929;28;20780;-73
2023/08/01 01:50:31;;;;;;;12.40;11.32;;;;;;;;;;4988942;28;20097;-72
2023/08/01 01:52:57;;;;;;;12.68;11.50;;;;;;;;;;4987951;28;20034;-75
2023/08/01 01:55:23;;;;;;;11.70;10.70;;;;;;;;;;4986842;28;20643;-73
2023/08/01 01:57:49;;;;;;;11.77;10.77;;;;;;;;;;4984615;28;20657;-73
2023/08/01 02:00:16;;;;;;;11.95;11.05;;;;;;;;;;4985389;28;20138;-73
2023/08/01 02:02:41;;;;;;;12.27;11.30;;;;;;;;;;4987858;28;20121;-73
2023/08/01 02:05:07;;;;;;;12.07;11.07;;;;;;;;;;4985347;28;20048;-73
2023/08/01 02:07:33;;;;;;;12.43;11.23;;;;;;;;;;4986585;28;20034;-72
2023/08/01 02:10:00;;;;;;;12.38;11.15;;;;;;;;;;4985658;28;20642;-74
2023/08/01 02:12:27;;;;;;;11.25;10.25;;;;;;;;;;4985521;28;20034;-73
2023/08/01 02:14:53;;;;;;;12.77;11.68;;;;;;;;;;4984728;28;20793;-73
2023/08/01 02:17:18;;;;;;;12.70;11.50;;;;;;;;;;4984060;28;20038;-73
2023/08/01 02:19:44;;;;;;;13.07;11.80;;;;;;;;;;4988287;28;20398;-73
2023/08/01 02:22:10;;;;;;;11.80;10.90;;;;;;;;;;4998316;28;20058;-74
2023/08/01 02:24:35;;;;;;;11.88;10.75;;;;;;;;;;4986518;28;20459;-73
2023/08/01 02:27:01;;;;;;;12.13;11.02;;;;;;;;;;4978782;28;20487;-73
2023/08/01 02:29:26;;;;;;;11.73;10.73;;;;;;;;;;4999622;28;20487;-73
2023/08/01 02:31:52;;;;;;;11.77;10.77;;;;;;;;;;4990528;28;20057;-74
2023/08/01 02:34:18;;;;;;;12.02;10.90;;;;;;;;;;4986971;28;20038;-73
2023/08/01 02:36:44;;;;;;;11.80;10.80;;;;;;;;;;4984548;28;20042;-74
2023/08/01 02:39:09;;;;;;;11.70;10.90;;;;;;;;;;4983271;28;20100;-73
2023/08/01 02:41:35;;;;;;;11.23;10.35;;;;;;;;;;4986108;28;20483;-73
2023/08/01 02:44:01;;;;;;;11.35;10.45;;;;;;;;;;4984657;28;20072;-73
2023/08/01 02:46:29;;;;;;;11.90;11.00;;;;;;;;;;4983612;28;20030;-73
2023/08/01 02:48:55;;;;;;;11.93;10.88;;;;;;;;;;4983031;28;20609;-74
2023/08/01 02:51:21;;;;;;;10.93;10.13;;;;;;;;;;4984488;28;20062;-73
2023/08/01 02:53:46;;;;;;;12.07;10.93;;;;;;;;;;4987010;28;20030;-74
2023/08/01 02:56:12;;;;;;;11.77;10.77;;;;;;;;;;4986017;28;20429;-73
2023/08/01 02:58:37;;;;;;;13.75;11.32;;;;;;;;;;4983395;28;20046;-73
2023/08/01 03:01:09;;;;;;;11.57;10.68;;;;;;;;;;4985446;28;20040;-73
2023/08/01 03:03:36;;;;;;;11.60;10.57;;;;;;;;;;4987977;28;20042;-73
2023/08/01 03:06:02;;;;;;;12.15;11.05;;;;;;;;;;4984815;28;20085;-73
2023/08/01 03:08:28;;;;;;;11.15;10.30;;;;;;;;;;4979835;28;20551;-73
2023/08/01 03:10:54;;;;;;;13.65;10.80;;;;;;;;;;4981920;28;20094;-74
2023/08/01 03:13:20;;;;;;;11.43;10.52;;;;;;;;;;4983189;28;20041;-73
2023/08/01 03:15:45;;;;;;;11.93;10.90;;;;;;;;;;4984054;28;20038;-73
2023/08/01 03:18:11;;;;;;;12.13;11.02;;;;;;;;;;4981082;28;20034;-73
2023/08/01 03:20:36;;;;;;;11.70;10.70;;;;;;;;;;4982667;28;20034;-73
2023/08/01 03:23:03;;;;;;;12.02;10.73;;;;;;;;;;4981785;28;20140;-74
2023/08/01 03:25:29;;;;;;;11.18;10.30;;;;;;;;;;4981068;28;20159;-74
2023/08/01 03:27:54;;;;;;;11.68;10.82;;;;;;;;;;4981247;28;20030;-74
2023/08/01 03:30:20;;;;;;;11.77;10.57;;;;;;;;;;4981959;28;20030;-75
2023/08/01 03:32:47;;;;;;;12.43;11.30;;;;;;;;;;4983145;28;20091;-73
2023/08/01 03:35:14;;;;;;;11.77;10.77;;;;;;;;;;4986891;28;20068;-74
2023/08/01 03:37:40;;;;;;;10.82;10.02;;;;;;;;;;4979968;28;21063;-72
2023/08/01 03:40:08;;;;;;;11.88;10.68;;;;;;;;;;4980540;28;20503;-74
2023/08/01 03:42:35;;;;;;;;;;;;;;;;;;4982693;28;20046;-74
2023/08/01 03:45:01;;;;;;;12.55;11.43;;;;;;;;;;4980894;28;19924;-74
2023/08/01 03:47:26;;;;;;;10.93;10.10;;;;;;;;;;4981068;28;20106;-73
2023/08/01 03:49:52;;;;;;;11.13;10.30;;;;;;;;;;4980991;28;20126;-73
2023/08/01 03:52:17;;;;;;;12.98;10.80;;;;;;;;;;4981655;28;20125;-73
2023/08/01 03:54:43;;;;;;;11.75;10.65;;;;;;;;;;4982090;28;20446;-74
2023/08/01 03:57:08;;;;;;;11.50;10.48;;;;;;;;;;4981548;28;20061;-73
2023/08/01 03:59:34;;;;;;;11.13;10.23;;;;;;;;;;4980580;28;20061;-73
2023/08/01 04:01:59;;;;;;;11.52;10.35;;;;;;;;;;4982081;28;20113;-73
2023/08/01 04:04:25;;;;;;;11.05;10.15;;;;;;;;;;4987282;28;20030;-73
2023/08/01 04:06:51;;;;;;;11.20;10.35;;;;;;;;;;4988015;28;20045;-73
2023/08/01 04:09:16;;;;;;;12.23;11.15;;;;;;;;;;4986768;28;20130;-73
2023/08/01 04:11:42;;;;;;;11.82;10.88;;;;;;;;;;4987840;28;20072;-73
2023/08/01 04:14:08;;;;;;;11.57;10.57;;;;;;;;;;4989028;28;20126;-73
2023/08/01 04:16:34;;;;;;;11.60;10.60;;;;;;;;;;4989936;28;20038;-73
2023/08/01 04:18:59;;;;;;;11.60;10.50;;;;;;;;;;4987494;28;20034;-73
2023/08/01 04:21:25;;;;;;;11.02;10.13;;;;;;;;;;4989594;28;20100;-73
2023/08/01 04:23:51;;;;;;;11.88;10.70;;;;;;;;;;4988634;28;20045;-73
2023/08/01 04:26:16;;;;;;;12.40;11.30;;;;;;;;;;4985352;28;20045;-73
2023/08/01 04:28:42;;;;;;;12.00;10.80;;;;;;;;;;4989098;28;20073;-73
2023/08/01 04:31:07;;;;;;;11.05;10.20;;;;;;;;;;4990681;28;20466;-73
2023/08/01 04:33:33;;;;;;;11.43;10.52;;;;;;;;;;4988543;28;20684;-73
2023/08/01 04:35:58;;;;;;;11.70;10.70;;;;;;;;;;4985505;28;20042;-73
2023/08/01 04:38:24;;;;;;;11.63;10.65;;;;;;;;;;4991284;28;20065;-73
2023/08/01 04:40:49;;;;;;;11.20;10.35;;;;;;;;;;4995757;28;20095;-72
2023/08/01 04:43:15;;;;;;;11.80;10.60;;;;;;;;;;4987141;28;20088;-73
2023/08/01 04:45:40;;;;;;;12.27;11.15;;;;;;;;;;4984786;28;20038;-73
2023/08/01 04:48:06;;;;;;;11.93;10.93;;;;;;;;;;4987284;28;20380;-73
2023/08/01 04:50:31;;;;;;;11.13;10.10;;;;;;;;;;4988500;28;20470;-73
2023/08/01 04:52:57;;;;;;;12.23;11.23;;;;;;;;;;4987981;28;20442;-73
2023/08/01 04:55:23;;;;;;;11.75;10.95;;;;;;;;;;4986068;28;20470;-73
2023/08/01 04:57:48;;;;;;;12.10;11.20;;;;;;;;;;4989425;28;20398;-74
2023/08/01 05:00:14;;;;;;;12.82;11.73;;;;;;;;;;4990647;28;20141;-73
2023/08/01 05:02:39;;;;;;;12.25;11.18;;;;;;;;;;4990994;28;20125;-73
2023/08/01 05:05:06;;;;;;;11.15;10.25;;;;;;;;;;4988967;28;20054;-73
2023/08/01 05:07:31;;;;;;;11.75;10.75;;;;;;;;;;4986861;28;20030;-73
2023/08/01 05:09:57;;;;;;;12.10;10.88;;;;;;;;;;4985941;28;20030;-74
2023/08/01 05:12:22;;;;;;;11.80;10.63;;;;;;;;;;4986667;28;20077;-74
2023/08/01 05:14:48;;;;;;;12.05;11.07;;;;;;;;;;4984562;28;20043;-74
2023/08/01 05:17:13;;;;;;;12.27;11.20;;;;;;;;;;4987510;28;20041;-74
2023/08/01 05:19:39;;;;;;;12.32;11.15;;;;;;;;;;4987504;28;20510;-74
2023/08/01 05:22:05;;;;;;;11.93;10.98;;;;;;;;;;4987711;28;20046;-74
2023/08/01 05:24:30;;;;;;;12.50;11.30;;;;;;;;;;4986098;28;20038;-74
2023/08/01 05:26:56;;;;;;;12.52;11.20;;;;;;;;;;4985923;28;20034;-74
2023/08/01 05:29:21;;;;;;;11.35;10.45;;;;;;;;;;4987390;28;20470;-74
2023/08/01 05:31:47;;;;;;;11.88;10.85;;;;;;;;;;4988017;28;20454;-72
2023/08/01 05:34:12;;;;;;;11.95;10.85;;;;;;;;;;4986786;28;20060;-74
2023/08/01 05:36:38;;;;;;;11.50;10.57;;;;;;;;;;4987664;28;20522;-74
2023/08/01 05:39:03;;;;;;;11.90;10.68;;;;;;;;;;4987944;28;20082;-74
2023/08/01 05:41:29;;;;;;;11.88;10.70;;;;;;;;;;4987550;28;20093;-73
2023/08/01 05:43:56;;;;;;;11.40;10.30;;;;;;;;;;4984293;28;20060;-73
2023/08/01 05:46:22;;;;;;;11.57;10.68;;;;;;;;;;4987495;28;20391;-74
2023/08/01 05:48:47;;;;;;;11.93;10.82;;;;;;;;;;4987180;28;20049;-74
2023/08/01 05:51:13;;;;;;;12.50;11.30;;;;;;;;;;4986344;28;20557;-74
2023/08/01 05:53:38;;;;;;;11.93;10.90;;;;;;;;;;4988122;28;20036;-74
2023/08/01 05:56:04;;;;;;;12.32;11.23;;;;;;;;;;4987119;28;20045;-74
2023/08/01 05:58:30;;;;;;;12.23;11.13;;;;;;;;;;4986792;28;20065;-73
2023/08/01 06:00:56;;;;;;;12.05;11.00;;;;;;;;;;4985548;28;20034;-73
2023/08/01 06:03:22;;;;;;;12.43;11.23;;;;;;;;;;4987051;28;20030;-74
2023/08/01 06:05:47;;;;;;;12.60;11.50;;;;;;;;;;4986850;28;20048;-74
2023/08/01 06:08:15;;;;;;;11.70;10.52;;;;;;;;;;4985330;28;20026;-73
2023/08/01 06:10:41;;;;;;;12.40;11.20;;;;;;;;;;4984569;28;20417;-73
2023/08/01 06:13:07;;;;;;;12.05;10.85;;;;;;;;;;4986813;28;20034;-73
2023/08/01 06:15:34;;;;;;;11.45;10.38;;;;;;;;;;4986709;28;20124;-74
2023/08/01 06:18:00;;;;;;;12.13;11.07;;;;;;;;;;4985407;28;20077;-74
2023/08/01 06:20:25;;;;;;;12.35;11.05;;;;;;;;;;4986171;28;20057;-74
2023/08/01 06:22:51;;;;;;;11.65;10.55;;;;;;;;;;4986496;28;20080;-74
2023/08/01 06:25:17;;;;;;;11.77;10.88;;;;;;;;;;4986442;28;20038;-73
2023/08/01 06:27:42;;;;;;;11.02;10.00;;;;;;;;;;4984973;28;20046;-74
2023/08/01 06:30:08;;;;;;;11.38;10.38;;;;;;;;;;4983479;28;20052;-74
2023/08/01 06:32:34;;;;;;;11.68;10.68;;;;;;;;;;4986382;28;20081;-74
2023/08/01 06:34:59;;;;;;;10.63;9.63;;;;;;;;;;4985192;28;20089;-74
2023/08/01 06:37:25;;;;;;;11.20;10.15;;;;;;;;;;4986004;28;20046;-74
2023/08/01 06:39:50;;;;;;;11.98;10.98;;;;;;;;;;4985113;28;20042;-74
2023/08/01 06:42:16;;;;;;;11.25;10.18;;;;;;;;;;4986061;28;20026;-74
2023/08/01 06:44:42;;;;;;;10.82;9.93;;;;;;;;;;4986242;28;20034;-74
2023/08/01 06:47:07;;;;;;;11.70;10.50;;;;;;;;;;4984714;28;20030;-74
2023/08/01 06:49:33;;;;;;;10.35;9.55;;;;;;;;;;4983761;28;20038;-74
2023/08/01 06:51:58;;;;;;;10.93;10.02;;;;;;;;;;4986032;28;20053;-74
2023/08/01 06:54:24;;;;;;;10.63;9.73;;;;;;;;;;4987190;28;20090;-74
2023/08/01 06:56:50;;;;;;;11.68;10.73;;;;;;;;;;4984777;28;20070;-73
2023/08/01 06:59:15;;;;;;;10.65;9.85;;;;;;;;;;4983976;28;20282;-74
2023/08/01 07:01:43;;;;;;;11.13;10.13;;;;;;;;;;4984210;28;20046;-74
2023/08/01 07:04:12;;;;;;;11.82;10.63;;;;;;;;;;4985064;28;20197;-73
2023/08/01 07:06:39;;;;;;;12.75;11.75;;;;;;;;;;4984461;28;20069;-73
2023/08/01 07:09:04;;;;;;;11.95;10.98;;;;;;;;;;4985809;28;20069;-74
2023/08/01 07:11:30;;;;;;;11.88;10.80;;;;;;;;;;4986497;28;20494;-73
2023/08/01 07:13:55;;;;;;;12.68;11.40;;;;;;;;;;4983161;28;20387;-74
2023/08/01 07:16:21;;;;;;;11.43;10.52;;;;;;;;;;4984446;28;20041;-74
2023/08/01 07:18:48;;;;;;;12.07;11.07;;;;;;;;;;4985387;28;20034;-74
2023/08/01 07:21:14;;;;;;;12.10;11.10;;;;;;;;;;4985463;28;20045;-73
2023/08/01 07:23:39;;;;;;;11.02;10.10;;;;;;;;;;4984441;28;20042;-73
2023/08/01 07:26:05;;;;;;;12.02;11.13;;;;;;;;;;4983415;28;20042;-74
2023/08/01 07:28:30;;;;;;;11.82;10.93;;;;;;;;;;4985445;28;20038;-74
2023/08/01 07:31:05;;;;;;;12.18;11.15;;;;;;;;;;4985722;28;20117;-73
2023/08/01 07:33:31;;;;;;;12.30;11.30;;;;;;;;;;4984337;28;20716;-73
2023/08/01 07:35:57;;;;;;;11.73;10.75;;;;;;;;;;4984112;28;20038;-73
2023/08/01 07:38:23;;;;;;;11.73;10.77;;;;;;;;;;4985041;28;20514;-73
2023/08/01 07:40:49;;;;;;;11.88;10.95;;;;;;;;;;4985367;28;20061;-73
2023/08/01 07:43:14;;;;;;;12.45;11.45;;;;;;;;;;4986861;28;20597;-74
2023/08/01 07:45:40;;;;;;;12.18;11.18;;;;;;;;;;4988545;28;20042;-74
2023/08/01 07:48:05;;;;;;;12.93;11.60;;;;;;;;;;4988975;28;20033;-73
2023/08/01 07:50:31;;;;;;;13.00;11.90;;;;;;;;;;4988280;28;20113;-74
2023/08/01 07:52:57;;;;;;;13.10;11.93;;;;;;;;;;4989030;28;20034;-73
2023/08/01 07:55:23;;;;;;;12.68;11.50;;;;;;;;;;4989577;28;20034;-74
2023/08/01 07:57:48;;;;;;;14.50;13.10;;;;;;;;;;4986569;28;20050;-74
2023/08/01 08:00:14;;;;;;;13.90;12.70;;;;;;;;;;4987716;28;20061;-74
2023/08/01 08:02:42;;;;;;;14.10;12.82;;;;;;;;;;4988935;28;20462;-74
2023/08/01 08:05:08;;;;;;;13.00;11.90;;;;;;;;;;4988469;28;20066;-74
2023/08/01 08:07:33;;;;;;;14.70;12.70;;;;;;;;;;4984052;28;20642;-74
2023/08/01 08:09:59;;;;;;;13.10;12.00;;;;;;;;;;4982676;28;20057;-74
2023/08/01 08:12:24;;;;;;;13.10;12.13;;;;;;;;;;4985554;28;20034;-74
2023/08/01 08:14:50;;;;;;;13.60;12.40;;;;;;;;;;4986069;28;20474;-74
2023/08/01 08:17:15;;;;;;;14.27;13.00;;;;;;;;;;4984468;28;20478;-74
2023/08/01 08:19:41;;;;;;;12.98;12.07;;;;;;;;;;4985116;28;20089;-74
2023/08/01 08:22:06;;;;;;;14.98;13.55;;;;;;;;;;4983726;28;20478;-73
2023/08/01 08:24:32;;;;;;;14.60;13.40;;;;;;;;;;4983890;28;20034;-75
2023/08/01 08:26:58;;;;;;;15.02;13.23;;;;;;;;;;4986258;28;20040;-75
2023/08/01 08:29:24;;;;;;;14.48;13.15;;;;;;;;;;4985178;28;20049;-74
2023/08/01 08:31:50;;;;;;;13.98;12.55;;;;;;;;;;4984682;28;20038;-75
2023/08/01 08:34:15;;;;;;;14.50;13.20;;;;;;;;;;4980855;28;20109;-74
2023/08/01 08:36:41;;;;;;;14.32;12.90;;;;;;;;;;4985183;28;20038;-75
2023/08/01 08:39:07;;;;;;;14.45;13.10;;;;;;;;;;4984929;28;20030;-74
2023/08/01 08:41:38;;;;;;;14.82;13.48;;;;;;;;;;4986138;28;20162;-74
2023/08/01 08:44:07;;;;;;;14.02;12.68;;;;;;;;;;4986958;28;20041;-75
2023/08/01 08:46:35;;;;;;;14.32;12.95;;;;;;;;;;4986447;28;20118;-74
2023/08/01 08:49:01;;;;;;;13.82;12.50;;;;;;;;;;4984553;28;20038;-74
2023/08/01 08:51:28;;;;;;;14.05;12.75;;;;;;;;;;4983474;28;20030;-74
2023/08/01 08:53:56;;;;;;;13.40;12.18;;;;;;;;;;4982820;28;20034;-74
2023/08/01 08:56:23;;;;;;;13.65;12.27;;;;;;;;;;4983320;28;20018;-74
2023/08/01 08:58:49;;;;;;;12.85;11.80;;;;;;;;;;4983840;28;20121;-75
2023/08/01 09:01:17;;;;;;;13.35;12.00;;;;;;;;;;4984772;28;20034;-75
2023/08/01 09:03:44;;;;;;;13.40;11.90;;;;;;;;;;4983318;28;20093;-75
2023/08/01 09:06:17;;;;;;;13.20;12.20;;;;;;;;;;4980029;28;20030;-75
2023/08/01 09:09:01;;;;;;;13.05;12.00;;;;;;;;;;4983153;28;20454;-76
2023/08/01 09:11:26;;;;;;;12.82;11.82;;;;;;;;;;4983447;28;20026;-76
2023/08/01 09:13:53;;;;;;;13.68;12.40;;;;;;;;;;4983125;28;20042;-76
2023/08/01 09:16:19;;;;;;;13.77;12.57;;;;;;;;;;4984333;28;20045;-76
2023/08/01 09:18:51;;;;;;;12.93;11.80;;;;;;;;;;4980688;28;20042;-76
2023/08/01 09:21:18;;;;;;;12.23;11.30;;;;;;;;;;4984293;28;20092;-75
2023/08/01 09:23:44;;;;;;;12.40;11.32;;;;;;;;;;4984211;28;20121;-76
2023/08/01 09:26:14;;;;;;;13.10;12.00;;;;;;;;;;4983792;28;20113;-76
2023/08/01 09:28:40;;;;;;;12.15;11.15;;;;;;;;;;4984872;28;20050;-76
2023/08/01 09:31:05;;;;;;;11.88;11.07;;;;;;;;;;4984633;28;20036;-76
2023/08/01 09:33:41;;;;;;;12.25;11.35;;;;;;;;;;4984001;28;20129;-76
2023/08/01 09:36:09;;;;;;;12.35;11.35;;;;;;;;;;4983993;28;20031;-74
2023/08/01 09:38:36;;;;;;;12.20;11.20;;;;;;;;;;4983585;28;20034;-76
2023/08/01 09:41:03;;;;;;;11.50;10.60;;;;;;;;;;4984034;28;20038;-76
2023/08/01 09:43:36;;;;;;;11.82;10.88;;;;;;;;;;4982698;28;20601;-76
2023/08/01 09:46:02;;;;;;;11.45;10.65;;;;;;;;;;4982109;28;20633;-76
2023/08/01 09:48:29;;;;;;;11.38;10.57;;;;;;;;;;4983526;28;20117;-76
2023/08/01 09:51:10;;;;;;;11.65;10.85;;;;;;;;;;4983729;28;20715;-75
2023/08/01 09:53:50;;;;;;;10.98;10.18;;;;;;;;;;4980443;28;21254;-75
2023/08/01 09:56:21;;;;;;;11.40;10.55;;;;;;;;;;4978469;28;20030;-75
2023/08/01 09:58:48;;;;;;;11.77;10.98;;;;;;;;;;4979930;28;20049;-75
2023/08/01 10:01:15;;;;;;;11.48;10.68;;;;;;;;;;4981822;28;20467;-76
2023/08/01 10:03:46;;;;;;;11.77;10.88;;;;;;;;;;4979555;28;20038;-76
2023/08/01 10:06:22;;;;;;;11.30;10.60;;;;;;;;;;4978918;28;20133;-75
2023/08/01 10:08:49;;;;;;;11.93;11.13;;;;;;;;;;4981108;28;20042;-75
2023/08/01 10:11:16;;;;;;;11.30;10.60;;;;;;;;;;4980223;28;20118;-75
2023/08/01 10:13:43;;;;;;;11.57;10.88;;;;;;;;;;4979692;28;20085;-76
2023/08/01 10:16:09;;;;;;;11.52;10.82;;;;;;;;;;4981558;28;20038;-76
2023/08/01 10:18:37;;;;;;;10.55;9.85;;;;;;;;;;4980837;28;20109;-75
2023/08/01 10:21:05;;;;;;;11.10;10.40;;;;;;;;;;4981945;28;20046;-76
2023/08/01 10:23:33;;;;;;;10.40;9.80;;;;;;;;;;4981558;28;20051;-76
2023/08/01 10:26:00;;;;;;;10.75;9.98;;;;;;;;;;4982810;28;20035;-76
2023/08/01 10:28:34;;;;;;;11.63;10.73;;;;;;;;;;4981656;28;20092;-75
2023/08/01 10:31:15;;;;;;;10.38;9.68;;;;;;;;;;4984670;28;20046;-76
2023/08/01 10:33:42;;;;;;;10.93;10.13;;;;;;;;;;4976534;28;20038;-76
2023/08/01 10:36:27;;;;;;;10.75;10.05;;;;;;;;;;4982697;28;20034;-76
2023/08/01 10:38:57;;;;;;;10.40;9.80;;;;;;;;;;4980882;28;20045;-76
2023/08/01 10:41:27;;;;;;;11.25;10.55;;;;;;;;;;4983921;28;20026;-76
2023/08/01 10:44:07;;;;;;;10.68;9.98;;;;;;;;;;4984267;28;20049;-76
2023/08/01 10:46:50;;;;;;;10.50;9.82;;;;;;;;;;4984316;28;20040;-76
2023/08/01 10:49:17;;;;;;;11.23;10.43;;;;;;;;;;4983236;28;20042;-77
2023/08/01 10:51:43;;;;;;;10.82;10.23;;;;;;;;;;4982233;28;20057;-77
2023/08/01 10:54:23;;;;;;;10.75;9.95;;;;;;;;;;4984312;28;20461;-76
2023/08/01 10:56:50;;;;;;;11.40;10.60;;;;;;;;;;4978241;28;20034;-76
2023/08/01 10:59:16;;;;;;;10.20;9.40;;;;;;;;;;4983446;28;20041;-77
2023/08/01 11:01:53;;;;;;;10.20;9.60;;;;;;;;;;4982257;28;20104;-76
2023/08/01 11:04:21;;;;;;;10.98;10.38;;;;;;;;;;4981352;28;20041;-77
2023/08/01 11:06:52;;;;;;;10.43;9.63;;;;;;;;;;4977049;28;20043;-76
2023/08/01 11:09:20;;;;;;;10.90;10.27;;;;;;;;;;4982953;28;20046;-77
2023/08/01 11:11:50;;;;;;;9.82;9.25;;;;;;;;;;4982491;28;20038;-76
2023/08/01 11:14:16;;;;;;;9.98;9.27;;;;;;;;;;4981901;28;20034;-76
2023/08/01 11:16:43;;;;;;;10.10;9.50;;;;;;;;;;4982373;28;20042;-76
2023/08/01 11:19:20;;;;;;;9.80;9.20;;;;;;;;;;4981219;28;20038;-76
2023/08/01 11:21:46;;;;;;;10.02;9.43;;;;;;;;;;4981881;28;20513;-74
2023/08/01 11:24:12;;;;;;;11.07;10.45;;;;;;;;;;4979572;28;20042;-74
2023/08/01 11:26:42;;;;;;;11.35;10.52;;;;;;;;;;4980295;28;20073;-74
2023/08/01 11:29:09;;;;;;;11.07;10.48;;;;;;;;;;4979753;28;20042;-74
2023/08/01 11:31:35;;;;;;;11.18;10.32;;;;;;;;;;4978620;28;20038;-75
2023/08/01 11:34:01;;;;;;;11.25;10.45;;;;;;;;;;4979894;28;20434;-73
2023/08/01 11:36:28;;;;;;;10.77;10.18;;;;;;;;;;4979724;28;20457;-75
2023/08/01 11:38:58;;;;;;;10.75;10.13;;;;;;;;;;4979633;28;20042;-75
2023/08/01 11:41:26;;;;;;;10.82;10.13;;;;;;;;;;4962647;28;20096;-75
2023/08/01 11:43:52;;;;;;;10.48;9.88;;;;;;;;;;4983668;28;20081;-75
2023/08/01 11:46:18;;;;;;;10.65;10.05;;;;;;;;;;4983444;28;20037;-75
2023/08/01 11:48:47;;;;;;;10.43;9.82;;;;;;;;;;4982461;28;20244;-76
2023/08/01 11:51:12;;;;;;;;;;;;;;;;;;4983885;28;20576;-75
2023/08/01 11:53:38;;;;;;;10.35;9.65;;;;;;;;;;4983858;28;19925;-76
2023/08/01 11:56:07;;;;;;;10.70;10.00;;;;;;;;;;4983484;28;20633;-77
2023/08/01 11:58:41;;;;;;;11.32;10.35;;;;;;;;;;4982058;28;20046;-75
2023/08/01 12:01:13;;;;;;;10.98;10.07;;;;;;;;;;4983471;28;20409;-76
2023/08/01 12:03:58;;;;;;;10.30;9.70;;;;;;;;;;4983481;28;20049;-74
2023/08/01 12:06:23;;;;;;;10.43;9.68;;;;;;;;;;4981501;28;20069;-74
2023/08/01 12:08:53;;;;;;;10.52;9.82;;;;;;;;;;4982077;28;20765;-74
2023/08/01 12:11:23;;;;;;;10.40;9.77;;;;;;;;;;4983496;28;20030;-76
2023/08/01 12:14:01;;;;;;;10.65;10.05;;;;;;;;;;4983399;28;20113;-75
2023/08/01 12:16:26;;;;;;;10.73;10.02;;;;;;;;;;4982948;28;20070;-76
2023/08/01 12:18:52;;;;;;;10.20;9.50;;;;;;;;;;4983627;28;20124;-75
2023/08/01 12:21:17;;;;;;;10.95;10.15;;;;;;;;;;4986755;28;20038;-76
2023/08/01 12:23:43;;;;;;;10.80;10.10;;;;;;;;;;4983596;28;20034;-75
2023/08/01 12:26:09;;;;;;;10.20;9.60;;;;;;;;;;4982384;28;20419;-75
2023/08/01 12:28:35;;;;;;;10.38;9.68;;;;;;;;;;4986675;28;20049;-75
2023/08/01 12:31:01;;;;;;;10.10;9.50;;;;;;;;;;4986988;28;20657;-75
2023/08/01 12:33:26;;;;;;;10.35;9.68;;;;;;;;;;4987118;28;20030;-75
2023/08/01 12:35:52;;;;;;;10.77;10.07;;;;;;;;;;4984565;28;20657;-75
2023/08/01 12:38:17;;;;;;;10.20;9.43;;;;;;;;;;4987081;28;20537;-76
2023/08/01 12:40:43;;;;;;;11.20;10.50;;;;;;;;;;4986878;28;20038;-74
2023/08/01 12:43:08;;;;;;;10.73;10.02;;;;;;;;;;4985939;28;20030;-75
2023/08/01 12:45:34;;;;;;;10.50;9.90;;;;;;;;;;4986646;28;20138;-76
2023/08/01 12:47:59;;;;;;;10.95;10.25;;;;;;;;;;4986061;28;20046;-75
2023/08/01 12:50:25;;;;;;;11.07;10.32;;;;;;;;;;4985639;28;20438;-75
2023/08/01 12:52:50;;;;;;;11.10;10.30;;;;;;;;;;4986758;28;20049;-75
2023/08/01 12:55:16;;;;;;;10.57;9.77;;;;;;;;;;4986955;28;20035;-75
2023/08/01 12:57:43;;;;;;;10.52;9.73;;;;;;;;;;4985692;28;20034;-75
2023/08/01 13:00:10;;;;;;;10.48;9.77;;;;;;;;;;4985508;28;20068;-76
2023/08/01 13:02:37;;;;;;;10.27;9.50;;;;;;;;;;4986372;28;20076;-75
2023/08/01 13:05:04;;;;;;;11.02;10.43;;;;;;;;;;4986499;28;20041;-75
2023/08/01 13:07:32;;;;;;;10.30;9.60;;;;;;;;;;4985469;28;21237;-75
2023/08/01 13:09:58;;;;;;;10.60;9.90;;;;;;;;;;4984713;28;20104;-74
2023/08/01 13:12:24;;;;;;;10.23;9.63;;;;;;;;;;4983687;28;20084;-75
2023/08/01 13:14:49;;;;;;;10.70;10.00;;;;;;;;;;4986365;28;20043;-76
2023/08/01 13:17:15;;;;;;;9.88;9.27;;;;;;;;;;4984028;28;20034;-75
2023/08/01 13:19:40;;;;;;;10.77;9.85;;;;;;;;;;4984848;28;20112;-75
2023/08/01 13:22:06;;;;;;;10.40;9.60;;;;;;;;;;4985819;28;20062;-75
2023/08/01 13:24:31;;;;;;;11.20;10.35;;;;;;;;;;4985051;28;20395;-75
2023/08/01 13:26:58;;;;;;;10.52;9.90;;;;;;;;;;4986155;28;20589;-74
2023/08/01 13:29:23;;;;;;;11.07;10.07;;;;;;;;;;4984156;28;20085;-75
2023/08/01 13:31:49;;;;;;;10.70;10.00;;;;;;;;;;4985476;28;20074;-75
2023/08/01 13:34:14;;;;;;;10.45;9.85;;;;;;;;;;4983844;28;20571;-75
2023/08/01 13:36:40;;;;;;;10.85;10.18;;;;;;;;;;4985746;28;20034;-75
2023/08/01 13:39:05;;;;;;;11.63;10.68;;;;;;;;;;4985099;28;20125;-77
2023/08/01 13:41:33;;;;;;;11.38;10.55;;;;;;;;;;4985757;28;20038;-74
2023/08/01 13:43:58;;;;;;;10.45;9.85;;;;;;;;;;4983748;28;20298;-75
2023/08/01 13:46:24;;;;;;;11.25;10.55;;;;;;;;;;4985449;28;20514;-75
2023/08/01 13:48:49;;;;;;;11.30;10.60;;;;;;;;;;4985291;28;20624;-75
2023/08/01 13:51:15;;;;;;;11.32;10.63;;;;;;;;;;4985660;28;20039;-75
2023/08/01 13:53:41;;;;;;;11.45;10.23;;;;;;;;;;4983575;28;20090;-75
2023/08/01 13:56:08;;;;;;;11.52;10.63;;;;;;;;;;4985409;28;20069;-75
2023/08/01 13:58:33;;;;;;;11.38;10.48;;;;;;;;;;4984949;28;20035;-75
2023/08/01 14:01:03;;;;;;;11.60;10.80;;;;;;;;;;4984118;28;20046;-75
2023/08/01 14:03:30;;;;;;;11.40;10.70;;;;;;;;;;4985026;28;20038;-76
2023/08/01 14:05:56;;;;;;;11.30;10.48;;;;;;;;;;4985096;28;20080;-75
2023/08/01 14:08:21;;;;;;;11.18;10.48;;;;;;;;;;4984559;28;20494;-75
2023/08/01 14:10:47;;;;;;;11.20;10.50;;;;;;;;;;4983757;28;20046;-75
2023/08/01 14:13:12;;;;;;;11.05;10.45;;;;;;;;;;4984112;28;20133;-75
2023/08/01 14:15:38;;;;;;;11.07;10.38;;;;;;;;;;4984715;28;20106;-75